Time;durP1;ratioP1;P1;durP2;ratioP2;P2;SDS_P1;SDS_P2;PMS_P1;PMS_P2;Temp;Humidity;BMP_temperature;BMP_pressure;BME280_temperature;BME280_humidity;BME280_pressure;Samples;Min_cycle;Max_cycle;Signal;HPM_P1;HPM_P2
2022/05/11 00:00:37;;;;;;;11.80;10.57;;;12.60;99.90;;;;;;5055427;28;20033;-49
2022/05/11 00:03:04;;;;;;;13.10;10.25;;;12.40;99.90;;;;;;5055470;28;20036;-49
2022/05/11 00:05:31;;;;;;;13.35;10.07;;;12.30;99.90;;;;;;5055360;28;20029;-51
2022/05/11 00:07:56;;;;;;;12.38;10.85;;;12.20;99.90;;;;;;5055082;28;20491;-51
2022/05/11 00:10:23;;;;;;;12.25;11.00;;;12.20;99.90;;;;;;5055185;28;20155;-51
2022/05/11 00:12:50;;;;;;;13.23;11.85;;;12.20;99.90;;;;;;5054950;28;20060;-49
2022/05/11 00:15:22;;;;;;;13.13;11.77;;;12.20;99.90;;;;;;5054861;28;20036;-50
2022/05/11 00:17:48;;;;;;;12.00;10.70;;;12.20;99.90;;;;;;5054807;28;20492;-50
2022/05/11 00:20:16;;;;;;;13.82;10.43;;;12.10;99.90;;;;;;5054818;28;20357;-52
2022/05/11 00:22:42;;;;;;;12.57;10.70;;;12.00;99.90;;;;;;5050188;28;20032;-51
2022/05/11 00:25:09;;;;;;;12.93;11.63;;;12.00;99.90;;;;;;5054930;28;20029;-52
2022/05/11 00:27:35;;;;;;;12.77;10.52;;;11.90;99.90;;;;;;5054817;28;20025;-51
2022/05/11 00:30:02;;;;;;;12.88;11.57;;;12.00;99.90;;;;;;5052811;28;20067;-50
2022/05/11 00:32:28;;;;;;;18.15;12.52;;;12.00;99.90;;;;;;5054694;28;20392;-50
2022/05/11 00:34:54;;;;;;;13.27;11.35;;;12.10;99.90;;;;;;5054663;28;20111;-50
2022/05/11 00:37:21;;;;;;;16.15;12.13;;;12.20;99.90;;;;;;5054619;28;20067;-50
2022/05/11 00:39:46;;;;;;;14.90;11.13;;;12.20;99.90;;;;;;5054244;28;20393;-51
2022/05/11 00:42:12;;;;;;;13.82;11.73;;;12.00;99.90;;;;;;5054727;28;20025;-50
2022/05/11 00:44:39;;;;;;;14.90;12.95;;;12.00;99.90;;;;;;5054692;28;20427;-51
2022/05/11 00:47:21;;;;;;;13.68;12.27;;;12.10;99.90;;;;;;5054330;28;20028;-49
2022/05/11 00:49:52;;;;;;;14.45;11.80;;;12.40;99.90;;;;;;5054259;28;20116;-49
2022/05/11 00:52:44;;;;;;;15.48;12.73;;;12.60;99.90;;;;;;5054424;28;20045;-51
2022/05/11 00:55:30;;;;;;;13.27;10.95;;;12.80;99.90;;;;;;5084785;28;20049;-51
2022/05/11 00:57:56;;;;;;;16.13;12.18;;;12.80;99.90;;;;;;5053970;28;20037;-49
2022/05/11 01:00:23;;;;;;;13.55;11.38;;;12.80;99.90;;;;;;5054193;28;20029;-51
2022/05/11 01:02:58;;;;;;;15.02;12.05;;;12.90;99.90;;;;;;5054123;28;20056;-50
2022/05/11 01:05:24;;;;;;;13.45;11.43;;;12.90;99.90;;;;;;5034131;28;20099;-50
2022/05/11 01:07:55;;;;;;;17.98;13.10;;;13.00;99.90;;;;;;5015779;28;20460;-49
2022/05/11 01:10:23;;;;;;;14.32;12.30;;;13.00;99.90;;;;;;5034073;28;20029;-50
2022/05/11 01:12:53;;;;;;;13.13;11.82;;;13.00;99.90;;;;;;5034134;28;20033;-50
2022/05/11 01:15:19;;;;;;;14.50;11.82;;;13.00;99.90;;;;;;5033981;28;20060;-50
2022/05/11 01:17:46;;;;;;;15.75;12.60;;;13.00;99.90;;;;;;5034098;28;20091;-51
2022/05/11 01:20:19;;;;;;;13.75;12.30;;;13.00;99.90;;;;;;5033870;28;20028;-51
2022/05/11 01:22:56;;;;;;;18.88;13.05;;;13.00;99.90;;;;;;5033838;28;20355;-50
2022/05/11 01:25:24;;;;;;;13.40;12.00;;;13.00;99.90;;;;;;5033815;28;20443;-50
2022/05/11 01:27:50;;;;;;;13.82;11.40;;;13.00;99.90;;;;;;5032319;28;20386;-52
2022/05/11 01:30:17;;;;;;;13.15;11.95;;;13.00;99.90;;;;;;5031503;28;20117;-51
2022/05/11 01:32:46;;;;;;;13.48;11.98;;;12.90;99.90;;;;;;5033642;28;20386;-52
2022/05/11 01:35:30;;;;;;;17.80;12.10;;;12.90;99.90;;;;;;5033400;28;20461;-49
2022/05/11 01:38:18;;;;;;;12.43;10.95;;;12.90;99.90;;;;;;5033538;28;20052;-52
2022/05/11 01:40:44;;;;;;;13.88;11.30;;;12.90;99.90;;;;;;5033626;28;20030;-50
2022/05/11 01:43:19;;;;;;;17.48;12.23;;;12.90;99.90;;;;;;5033661;28;20025;-49
2022/05/11 01:45:45;;;;;;;13.38;11.45;;;12.90;99.90;;;;;;5033600;28;20048;-50
2022/05/11 01:48:10;;;;;;;13.27;10.85;;;12.90;99.90;;;;;;5033291;28;20470;-50
2022/05/11 01:50:36;;;;;;;13.88;10.95;;;12.90;99.90;;;;;;5032833;28;20037;-51
2022/05/11 01:53:04;;;;;;;12.13;10.75;;;12.90;99.90;;;;;;5033135;28;20386;-51
2022/05/11 01:55:30;;;;;;;14.32;10.98;;;12.90;99.90;;;;;;5033241;28;20370;-52
2022/05/11 01:57:56;;;;;;;12.60;11.20;;;13.00;99.90;;;;;;5033321;28;20104;-49
2022/05/11 02:00:22;;;;;;;13.43;11.02;;;12.90;99.90;;;;;;5033116;28;20033;-49
2022/05/11 02:02:48;;;;;;;13.35;10.65;;;12.60;99.90;;;;;;5047942;28;20068;-51
2022/05/11 02:08:12;;;;;;;14.82;10.15;;;12.30;99.90;;;;;;5010821;28;20394;-51
2022/05/11 02:10:38;;;;;;;19.00;11.18;;;12.30;99.90;;;;;;5011229;28;20036;-49
2022/05/11 02:13:05;;;;;;;13.80;10.63;;;12.00;99.90;;;;;;5011392;28;20030;-51
2022/05/11 02:15:30;;;;;;;12.27;10.98;;;11.80;99.90;;;;;;5011137;28;20030;-50
2022/05/11 02:17:56;;;;;;;13.30;10.52;;;12.00;99.90;;;;;;5011374;28;20084;-49
2022/05/11 02:20:23;;;;;;;12.02;10.68;;;12.10;99.90;;;;;;5011210;28;20065;-52
2022/05/11 02:22:50;;;;;;;13.13;11.23;;;12.00;99.90;;;;;;5011426;28;20497;-50
2022/05/11 02:25:17;;;;;;;11.18;10.07;;;11.90;99.90;;;;;;5011070;28;20038;-50
2022/05/11 02:27:44;;;;;;;11.65;10.45;;;12.00;99.90;;;;;;5011371;28;20034;-50
2022/05/11 02:30:14;;;;;;;11.15;10.02;;;12.10;99.90;;;;;;5011286;28;20038;-49
2022/05/11 02:32:40;;;;;;;11.93;9.85;;;12.10;99.90;;;;;;5011376;28;20597;-51
2022/05/11 02:35:17;;;;;;;12.63;10.55;;;12.30;99.90;;;;;;5011169;28;20104;-51
2022/05/11 02:38:05;;;;;;;12.38;9.50;;;12.50;99.90;;;;;;5011230;28;20085;-51
2022/05/11 02:40:36;;;;;;;13.23;9.90;;;12.50;99.90;;;;;;5011063;28;20026;-50
2022/05/11 02:43:03;;;;;;;14.82;9.75;;;12.70;99.90;;;;;;5015019;28;20413;-52
2022/05/11 02:45:30;;;;;;;13.88;10.45;;;12.70;99.90;;;;;;5032822;28;20108;-51
2022/05/11 02:47:57;;;;;;;14.43;10.35;;;12.70;99.90;;;;;;5032994;28;20072;-51
2022/05/11 02:50:30;;;;;;;10.73;9.60;;;12.80;99.90;;;;;;5032657;28;20083;-50
2022/05/11 02:52:56;;;;;;;11.00;9.82;;;12.50;99.90;;;;;;5032640;28;20188;-51
2022/05/11 02:55:22;;;;;;;11.98;10.55;;;12.10;99.90;;;;;;5032587;28;20105;-49
2022/05/11 02:57:48;;;;;;;12.38;10.18;;;12.20;99.90;;;;;;5032813;28;20419;-49
2022/05/11 03:00:18;;;;;;;14.43;10.32;;;12.40;99.90;;;;;;5032617;28;20032;-52
2022/05/11 03:02:45;;;;;;;11.48;10.32;;;12.50;99.90;;;;;;5050289;28;20120;-51
2022/05/11 03:05:12;;;;;;;13.93;11.10;;;12.50;99.90;;;;;;5014522;28;20034;-52
2022/05/11 03:07:39;;;;;;;17.15;10.68;;;12.60;99.90;;;;;;5014433;28;20518;-51
2022/05/11 03:10:07;;;;;;;13.82;10.45;;;12.70;99.90;;;;;;5014423;28;20120;-51
2022/05/11 03:12:33;;;;;;;15.02;10.25;;;12.70;99.90;;;;;;5014277;28;20567;-51
2022/05/11 03:15:00;;;;;;;13.50;10.57;;;12.70;99.90;;;;;;5014128;28;20050;-50
2022/05/11 03:17:26;;;;;;;12.10;10.25;;;12.70;99.90;;;;;;5014141;28;20113;-49
2022/05/11 03:19:52;;;;;;;17.15;11.98;;;12.80;99.90;;;;;;5014249;28;20125;-51
2022/05/11 03:22:18;;;;;;;16.83;10.98;;;12.80;99.90;;;;;;5014235;28;20510;-51
2022/05/11 03:24:44;;;;;;;18.00;10.93;;;12.80;99.90;;;;;;5014038;28;20041;-49
2022/05/11 03:27:10;;;;;;;14.63;10.80;;;12.80;99.90;;;;;;5014143;28;20555;-49
2022/05/11 03:29:37;;;;;;;13.52;10.52;;;12.80;99.90;;;;;;5013812;28;20022;-51
2022/05/11 03:35:01;;;;;;;13.07;11.68;;;12.70;99.90;;;;;;4975279;28;20054;-52
2022/05/11 03:37:27;;;;;;;11.55;10.35;;;12.40;99.90;;;;;;4994256;28;20403;-49
2022/05/11 03:39:53;;;;;;;12.98;11.45;;;12.50;99.90;;;;;;4993902;28;20034;-51
2022/05/11 03:42:22;;;;;;;14.15;12.35;;;12.60;99.90;;;;;;4994253;28;20060;-49
2022/05/11 03:44:48;;;;;;;18.13;11.70;;;12.80;99.90;;;;;;4994931;28;20247;-49
2022/05/11 03:47:14;;;;;;;14.65;11.40;;;12.90;99.90;;;;;;5013725;28;20117;-52
2022/05/11 03:49:40;;;;;;;18.65;11.45;;;12.90;99.90;;;;;;5013422;28;20116;-51
2022/05/11 03:52:06;;;;;;;13.40;11.02;;;12.90;99.90;;;;;;5013250;28;20530;-50
2022/05/11 03:54:32;;;;;;;16.75;11.15;;;13.10;99.90;;;;;;5013519;28;20138;-51
2022/05/11 03:56:58;;;;;;;15.50;11.63;;;13.10;99.90;;;;;;5013557;28;20057;-51
2022/05/11 03:59:23;;;;;;;13.55;10.80;;;13.00;99.90;;;;;;5013610;28;20131;-50
2022/05/11 04:01:49;;;;;;;12.95;11.52;;;12.60;99.90;;;;;;5013592;28;20034;-51
2022/05/11 04:04:15;;;;;;;11.38;10.18;;;12.40;99.90;;;;;;5006807;28;20046;-49
2022/05/11 04:06:41;;;;;;;14.30;11.05;;;12.50;99.90;;;;;;4993712;28;20026;-49
2022/05/11 04:09:06;;;;;;;14.85;11.40;;;12.70;99.90;;;;;;4978706;28;20418;-50
2022/05/11 04:11:33;;;;;;;12.25;11.05;;;12.60;99.90;;;;;;5028310;28;20504;-50
2022/05/11 04:13:59;;;;;;;13.50;11.30;;;12.60;99.90;;;;;;5015981;28;20041;-51
2022/05/11 04:16:25;;;;;;;14.48;11.60;;;12.50;99.90;;;;;;5047864;28;20074;-50
2022/05/11 04:18:51;;;;;;;16.05;11.38;;;12.40;99.90;;;;;;5052869;28;20389;-49
2022/05/11 04:21:16;;;;;;;14.15;11.43;;;12.20;99.90;;;;;;5053062;28;20037;-51
2022/05/11 04:23:43;;;;;;;12.38;11.07;;;12.10;99.90;;;;;;5054885;28;20473;-49
2022/05/11 04:26:11;;;;;;;12.05;10.85;;;12.00;99.90;;;;;;5052481;28;20464;-51
2022/05/11 04:28:39;;;;;;;12.27;10.98;;;12.20;99.90;;;;;;5054483;28;20612;-52
2022/05/11 04:31:08;;;;;;;12.45;11.15;;;12.20;99.90;;;;;;5054665;28;20104;-49
2022/05/11 04:33:35;;;;;;;13.20;11.68;;;12.40;99.90;;;;;;5053291;28;20518;-51
2022/05/11 04:36:01;;;;;;;16.60;12.07;;;12.50;99.90;;;;;;5054104;28;20041;-52
2022/05/11 04:38:27;;;;;;;14.32;11.80;;;12.60;99.90;;;;;;5036143;28;20496;-48
2022/05/11 04:40:53;;;;;;;13.15;11.43;;;12.70;99.90;;;;;;5054537;28;20071;-49
2022/05/11 04:43:20;;;;;;;32.58;11.30;;;12.80;99.90;;;;;;5054627;28;20029;-50
2022/05/11 04:45:46;;;;;;;14.18;11.73;;;12.60;99.90;;;;;;5053829;28;20127;-49
2022/05/11 04:48:14;;;;;;;14.27;11.35;;;12.60;99.90;;;;;;5054408;28;20029;-49
2022/05/11 04:50:43;;;;;;;16.92;13.20;;;12.70;99.90;;;;;;5069085;28;20455;-50
2022/05/11 04:53:11;;;;;;;16.88;13.73;;;12.90;99.90;;;;;;5069079;28;20091;-49
2022/05/11 04:55:38;;;;;;;18.65;14.02;;;13.30;99.90;;;;;;5069097;28;20048;-50
2022/05/11 04:58:04;;;;;;;17.95;14.25;;;13.30;99.90;;;;;;5054381;28;20473;-51
2022/05/11 05:00:31;;;;;;;16.13;13.90;;;13.30;99.90;;;;;;5035466;28;20420;-50
2022/05/11 05:02:57;;;;;;;19.00;13.23;;;13.30;99.90;;;;;;5053104;28;20040;-51
2022/05/11 05:05:23;;;;;;;18.73;13.73;;;13.30;99.90;;;;;;5069640;28;20555;-49
2022/05/11 05:07:48;;;;;;;19.27;14.48;;;13.30;99.90;;;;;;5053389;28;20025;-50
2022/05/11 05:10:15;;;;;;;18.48;14.02;;;13.30;99.90;;;;;;5053036;28;20029;-50
2022/05/11 05:12:43;;;;;;;17.10;13.63;;;13.30;99.90;;;;;;5052088;28;20461;-51
2022/05/11 05:15:11;;;;;;;16.30;14.10;;;13.40;99.90;;;;;;5049764;28;20101;-50
2022/05/11 05:17:37;;;;;;;19.52;14.45;;;13.70;99.90;;;;;;5032338;28;20034;-52
2022/05/11 05:20:07;;;;;;;18.05;13.80;;;13.80;99.90;;;;;;5050571;28;20400;-49
2022/05/11 05:22:33;;;;;;;17.05;14.25;;;13.80;99.90;;;;;;5049257;28;20041;-49
2022/05/11 05:24:59;;;;;;;16.33;13.52;;;13.90;99.90;;;;;;5051868;28;20106;-51
2022/05/11 05:27:25;;;;;;;16.25;14.50;;;14.20;99.90;;;;;;5052913;28;20473;-50
2022/05/11 05:32:38;;;;;;;18.05;14.15;;;14.70;99.90;;;;;;5051917;28;20504;-49
2022/05/11 05:35:08;;;;;;;17.05;14.30;;;14.70;99.90;;;;;;5053301;28;20024;-49
2022/05/11 05:37:34;;;;;;;14.82;13.27;;;14.60;99.90;;;;;;5033995;28;20045;-49
2022/05/11 05:40:01;;;;;;;17.55;13.93;;;14.70;99.90;;;;;;5053413;28;20025;-49
2022/05/11 05:42:28;;;;;;;19.25;13.68;;;14.80;99.90;;;;;;5052083;28;20500;-51
2022/05/11 05:44:54;;;;;;;15.75;13.73;;;15.00;99.90;;;;;;5051769;28;20017;-49
2022/05/11 05:47:21;;;;;;;20.55;13.70;;;14.90;99.90;;;;;;5052688;28;20048;-50
2022/05/11 05:49:47;;;;;;;17.58;14.20;;;14.90;99.90;;;;;;5052729;28;20063;-50
2022/05/11 05:52:22;;;;;;;16.25;13.93;;;15.20;99.90;;;;;;5041820;28;20049;-51
2022/05/11 05:54:48;;;;;;;17.25;15.02;;;15.20;99.90;;;;;;5051737;28;20435;-49
2022/05/11 05:57:15;;;;;;;18.80;14.60;;;15.40;99.90;;;;;;5052487;28;20029;-49
2022/05/11 05:59:41;;;;;;;18.98;14.77;;;15.50;99.90;;;;;;5052661;28;20384;-51
2022/05/11 06:02:12;;;;;;;16.98;13.48;;;15.60;99.90;;;;;;5052598;28;20112;-51
2022/05/11 06:04:39;;;;;;;15.80;14.10;;;;;;;;;;5033235;28;20103;-50
2022/05/11 06:07:06;;;;;;;16.48;14.57;;;;;;;;;;5053216;28;20435;-51
2022/05/11 06:09:32;;;;;;;15.05;12.77;;;16.20;99.90;;;;;;5052269;28;20024;-49
2022/05/11 06:11:57;;;;;;;15.70;13.63;;;16.10;99.90;;;;;;5052759;28;20037;-49
2022/05/11 06:14:23;;;;;;;17.45;13.80;;;16.10;99.90;;;;;;5052358;28;20021;-47
2022/05/11 06:16:49;;;;;;;13.80;12.48;;;16.50;99.90;;;;;;5052592;28;20036;-49
2022/05/11 06:19:15;;;;;;;13.43;12.00;;;17.00;99.90;;;;;;5052357;28;20035;-49
2022/05/11 06:21:42;;;;;;;14.15;12.07;;;17.00;99.90;;;;;;5052748;28;20029;-49
2022/05/11 06:24:08;;;;;;;16.63;12.75;;;17.10;99.90;;;;;;5052554;28;20499;-48
2022/05/11 06:26:34;;;;;;;12.75;11.43;;;17.50;99.90;;;;;;5016327;28;20040;-47
2022/05/11 06:29:00;;;;;;;18.92;14.60;;;17.30;99.90;;;;;;5052387;28;20416;-48
2022/05/11 06:31:26;;;;;;;26.45;21.00;;;17.50;99.90;;;;;;5052344;28;20025;-48
2022/05/11 06:33:55;;;;;;;21.55;19.42;;;;;;;;;;5052410;28;20025;-47
2022/05/11 06:36:23;;;;;;;18.13;13.35;;;19.00;99.90;;;;;;5053780;28;20044;-49
2022/05/11 06:38:49;;;;;;;10.63;9.38;;;19.00;99.90;;;;;;5055892;28;20033;-53
2022/05/11 06:41:19;;;;;;;12.48;10.13;;;19.40;99.90;;;;;;5055131;28;20036;-46
2022/05/11 06:43:45;;;;;;;12.20;9.25;;;19.80;99.90;;;;;;5035686;28;20033;-52
2022/05/11 06:46:12;;;;;;;12.18;10.07;;;20.10;99.90;;;;;;5055815;28;20523;-46
2022/05/11 06:48:38;;;;;;;14.23;10.13;;;20.30;99.90;;;;;;5054979;28;20090;-50
2022/05/11 06:51:04;;;;;;;13.82;10.55;;;20.40;99.90;;;;;;5053422;28;20036;-48
2022/05/11 06:59:20;;;;;;;15.95;10.57;;;20.80;99.90;;;;;;5055606;28;20139;-52
2022/05/11 07:01:45;;;;;;;11.85;8.82;;;;;;;;;;5044625;28;20120;-49
2022/05/11 07:04:11;;;;;;;11.27;9.50;;;22.00;99.90;;;;;;5031860;28;20172;-50
2022/05/11 07:06:37;;;;;;;15.88;10.85;;;22.10;99.90;;;;;;4988823;28;20042;-49
2022/05/11 07:09:03;;;;;;;12.75;9.07;;;22.30;99.90;;;;;;5034363;28;20044;-49
2022/05/11 07:14:13;;;;;;;16.10;9.40;;;;;;;;;;5034699;28;20036;-49
2022/05/11 07:16:39;;;;;;;10.95;8.65;;;22.70;99.90;;;;;;5034166;28;20517;-47
2022/05/11 07:19:06;;;;;;;12.90;9.95;;;22.60;99.90;;;;;;5017072;28;20041;-45
2022/05/11 07:21:32;;;;;;;11.45;9.23;;;22.80;99.90;;;;;;5033121;28;20056;-51
2022/05/11 07:23:58;;;;;;;12.68;9.43;;;23.00;99.90;;;;;;5000599;28;20049;-45
2022/05/11 07:26:24;;;;;;;10.00;8.68;;;23.10;99.90;;;;;;5020676;28;20495;-47
2022/05/11 07:28:50;;;;;;;15.80;10.05;;;23.30;99.90;;;;;;5055894;28;20532;-46
2022/05/11 07:31:16;;;;;;;9.60;8.55;;;;;;;;;;5053554;28;20025;-47
2022/05/11 07:33:43;;;;;;;13.32;9.45;;;23.70;99.90;;;;;;5054235;28;20440;-47
2022/05/11 07:36:09;;;;;;;13.48;9.90;;;23.70;99.90;;;;;;5054109;28;20037;-47
2022/05/11 07:38:40;;;;;;;14.75;9.48;;;24.00;99.90;;;;;;5027321;28;20080;-46
2022/05/11 07:41:06;;;;;;;10.35;8.80;;;;;;;;;;5054536;28;20443;-47
2022/05/11 07:43:32;;;;;;;16.63;10.73;;;;;;;;;;5054745;28;20029;-46
2022/05/11 07:45:58;;;;;;;10.50;9.13;;;24.50;99.90;;;;;;5054442;28;20025;-49
2022/05/11 07:48:24;;;;;;;13.05;10.07;;;24.50;99.90;;;;;;5052141;28;20495;-47
2022/05/11 07:50:50;;;;;;;10.60;9.50;;;24.50;99.90;;;;;;5054463;28;20373;-46
2022/05/11 07:53:16;;;;;;;12.23;9.50;;;;;;;;;;5054848;28;20082;-47
2022/05/11 07:55:42;;;;;;;10.63;9.55;;;24.80;99.90;;;;;;5053680;28;20029;-48
2022/05/11 08:00:55;;;;;;;11.45;9.68;;;25.00;99.90;;;;;;5054714;28;20130;-48
2022/05/11 08:03:21;;;;;;;11.57;10.38;;;;;;;;;;5054985;28;20059;-46
2022/05/11 08:05:47;;;;;;;11.73;9.13;;;;;;;;;;5055037;28;20075;-47
2022/05/11 08:08:13;;;;;;;11.18;9.68;;;25.40;99.90;;;;;;5051810;28;20041;-48
2022/05/11 08:10:42;;;;;;;10.20;9.07;;;25.40;99.90;;;;;;5019422;28;20055;-46
2022/05/11 08:13:09;;;;;;;9.20;8.30;;;25.60;99.90;;;;;;5053231;28;20033;-47
2022/05/11 08:15:39;;;;;;;11.98;8.70;;;26.00;99.90;;;;;;5054985;28;20037;-46
2022/05/11 08:18:07;;;;;;;12.02;10.00;;;26.20;99.90;;;;;;5055024;28;20039;-47
2022/05/11 08:20:35;;;;;;;12.48;9.55;;;;;;;;;;5033308;28;20518;-48
2022/05/11 08:23:02;;;;;;;13.00;9.43;;;;;;;;;;5051644;28;20041;-46
2022/05/11 08:25:29;;;;;;;16.30;9.18;;;;;;;;;;5055072;28;20021;-46
2022/05/11 08:27:56;;;;;;;10.73;8.50;;;;;;;;;;5049063;28;20040;-46
2022/05/11 08:33:27;;;;;;;10.68;9.32;;;;;;;;;;5035015;28;20147;-48
2022/05/11 08:35:58;;;;;;;8.60;7.78;;;;;;;;;;5049321;28;20428;-47
2022/05/11 08:38:29;;;;;;;10.30;6.53;;;26.50;99.90;;;;;;5054277;28;20495;-46
2022/05/11 08:40:58;;;;;;;6.93;5.75;;;;;;;;;;5054798;28;20266;-46
2022/05/11 08:43:28;;;;;;;10.02;5.10;;;25.90;99.90;;;;;;5061363;28;20056;-47
2022/05/11 08:46:22;;;;;;;6.63;4.88;;;25.60;99.90;;;;;;5073784;28;20037;-47
2022/05/11 08:49:11;;;;;;;9.05;6.55;;;25.40;99.90;;;;;;5052125;28;20087;-47
2022/05/11 08:51:49;;;;;;;12.88;7.80;;;25.20;99.90;;;;;;5052253;28;20132;-47
2022/05/11 08:54:31;;;;;;;9.55;6.50;;;25.00;99.90;;;;;;5052150;28;20048;-47
2022/05/11 08:56:57;;;;;;;8.95;7.43;;;;;;;;;;5052092;28;20541;-47
2022/05/11 08:59:26;;;;;;;12.15;7.70;;;;;;;;;;5052002;28;20154;-46
2022/05/11 09:01:52;;;;;;;9.43;7.10;;;;;;;;;;5032395;28;20087;-47
2022/05/11 09:04:23;;;;;;;11.02;7.93;;;25.30;99.90;;;;;;5031151;28;20060;-46
2022/05/11 09:06:49;;;;;;;9.90;7.45;;;25.30;99.90;;;;;;5031641;28;20128;-47
2022/05/11 09:09:16;;;;;;;9.35;6.80;;;25.60;99.90;;;;;;5031949;28;20121;-47
2022/05/11 09:11:52;;;;;;;11.32;6.82;;;25.80;99.90;;;;;;5031491;28;20036;-47
2022/05/11 09:14:52;;;;;;;8.65;6.97;;;25.70;99.90;;;;;;5028845;28;20021;-46
2022/05/11 09:17:21;;;;;;;10.13;6.45;;;;;;;;;;4953687;28;20051;-47
2022/05/11 09:20:03;;;;;;;9.32;5.30;;;26.00;99.90;;;;;;4953927;28;20066;-46
2022/05/11 09:22:31;;;;;;;6.03;5.38;;;;;;;;;;4951015;28;20035;-47
2022/05/11 09:24:59;;;;;;;8.05;5.50;;;;;;;;;;4961272;28;20053;-47
2022/05/11 09:27:27;;;;;;;7.38;5.47;;;;;;;;;;4989894;28;20042;-47
2022/05/11 09:30:12;;;;;;;13.23;5.70;;;;;;;;;;4991122;28;20034;-48
2022/05/11 09:32:39;;;;;;;7.97;5.03;;;;;;;;;;4991607;28;20466;-47
2022/05/11 09:35:25;;;;;;;8.13;5.07;;;;;;;;;;4992232;28;20497;-47
2022/05/11 09:37:57;;;;;;;5.63;3.63;;;;;;;;;;4991710;28;20113;-47
2022/05/11 09:40:23;;;;;;;5.30;4.13;;;;;;;;;;4992207;28;20507;-47
2022/05/11 09:42:52;;;;;;;7.95;4.47;;;;;;;;;;4990087;28;20069;-48
2022/05/11 09:45:42;;;;;;;7.60;3.90;;;;;;;;;;4992348;28;20517;-49
2022/05/11 09:48:24;;;;;;;9.02;3.92;;;;;;;;;;4958490;28;20049;-47
2022/05/11 09:50:54;;;;;;;7.93;3.73;;;;;;;;;;4971797;28;20038;-48
2022/05/11 09:53:29;;;;;;;5.55;3.38;;;;;;;;;;5015387;28;20286;-47
2022/05/11 09:55:55;;;;;;;6.57;3.90;;;27.30;99.90;;;;;;5033694;28;20516;-48
2022/05/11 09:58:33;;;;;;;7.65;4.10;;;;;;;;;;5033584;28;20076;-48
2022/05/11 10:01:11;;;;;;;4.28;3.70;;;;;;;;;;5033625;28;20443;-48
2022/05/11 10:03:41;;;;;;;6.28;4.03;;;;;;;;;;5033512;28;20034;-47
2022/05/11 10:06:09;;;;;;;5.50;4.25;;;27.80;98.20;;;;;;5033223;28;20038;-47
2022/05/11 10:08:38;;;;;;;11.05;3.85;;;27.80;98.80;;;;;;5033269;28;20512;-47
2022/05/11 10:11:24;;;;;;;8.80;3.53;;;28.00;99.10;;;;;;5035356;28;20036;-50
2022/05/11 10:22:54;;;;;;;6.70;3.80;;;;;;;;;;5024264;28;20421;-48
2022/05/11 10:25:21;;;;;;;3.85;3.42;;;;;;;;;;5053036;28;20033;-49
2022/05/11 10:27:48;;;;;;;7.57;3.92;;;;;;;;;;5052806;28;20033;-48
2022/05/11 10:30:35;;;;;;;5.72;2.65;;;;;;;;;;5052972;28;20029;-47
2022/05/11 10:33:20;;;;;;;5.05;3.65;;;;;;;;;;5054931;28;20499;-50
2022/05/11 10:35:58;;;;;;;4.22;3.13;;;;;;;;;;5052146;28;20115;-50
2022/05/11 10:38:31;;;;;;;5.03;3.55;;;;;;;;;;5065589;28;20424;-48
2022/05/11 10:41:12;;;;;;;4.70;3.33;;;;;;;;;;5052927;28;20032;-49
2022/05/11 10:43:59;;;;;;;6.32;3.50;;;29.00;95.30;;;;;;5052811;28;20029;-49
2022/05/11 10:46:36;;;;;;;5.22;3.55;;;29.00;96.00;;;;;;5050872;28;20036;-49
2022/05/11 10:49:13;;;;;;;5.13;3.80;;;28.90;95.00;;;;;;5051326;28;20033;-49
2022/05/11 10:52:15;;;;;;;6.78;3.85;;;28.90;96.50;;;;;;5014532;28;20448;-48
2022/05/11 10:54:59;;;;;;;3.42;2.90;;;29.30;98.60;;;;;;5032930;28;20033;-48
2022/05/11 10:57:43;;;;;;;3.78;2.75;;;29.20;92.60;;;;;;5032997;28;20064;-49
2022/05/11 11:00:12;;;;;;;3.33;2.55;;;29.30;90.80;;;;;;5031104;28;20144;-48
2022/05/11 11:02:42;;;;;;;8.15;2.78;;;;;;;;;;5031107;28;20053;-48
2022/05/11 11:05:08;;;;;;;3.83;2.70;;;;;;;;;;5033016;28;20432;-48
2022/05/11 11:07:45;;;;;;;3.53;2.90;;;29.40;99.90;;;;;;5033050;28;20030;-48
2022/05/11 11:10:28;;;;;;;5.43;2.85;;;29.80;91.70;;;;;;5032855;28;20500;-48
2022/05/11 11:12:54;;;;;;;8.07;2.90;;;;;;;;;;5030904;28;20049;-48
2022/05/11 11:15:26;;;;;;;4.30;2.70;;;30.10;94.80;;;;;;5031061;28;20033;-49
2022/05/11 11:17:55;;;;;;;4.15;2.50;;;29.10;88.50;;;;;;5032097;28;20069;-46
2022/05/11 11:20:22;;;;;;;6.60;3.03;;;29.30;91.60;;;;;;5047388;28;20405;-47
2022/05/11 11:23:06;;;;;;;4.25;2.58;;;29.20;91.30;;;;;;5032932;28;20034;-47
2022/05/11 11:25:51;;;;;;;7.47;3.00;;;28.80;89.50;;;;;;5050882;28;20068;-48
2022/05/11 11:28:18;;;;;;;3.10;2.80;;;29.30;91.10;;;;;;5054971;28;20469;-46
2022/05/11 11:30:59;;;;;;;3.45;2.90;;;29.40;88.90;;;;;;5005073;28;20060;-48
2022/05/11 11:33:28;;;;;;;5.28;2.72;;;29.70;94.00;;;;;;5049904;28;20045;-47
2022/05/11 11:36:14;;;;;;;4.18;2.70;;;29.90;92.60;;;;;;5055480;28;20051;-46
2022/05/11 11:38:40;;;;;;;3.33;2.35;;;30.10;90.90;;;;;;5055481;28;20029;-45
2022/05/11 11:41:09;;;;;;;3.45;2.25;;;;;;;;;;5054817;28;20037;-48
2022/05/11 11:44:04;;;;;;;6.20;3.03;;;31.10;88.10;;;;;;5055762;28;20460;-46
2022/05/11 11:46:35;;;;;;;3.05;2.30;;;;;;;;;;5055551;28;20764;-46
2022/05/11 11:49:09;;;;;;;16.40;3.63;;;;;;;;;;5037380;28;20048;-45
2022/05/11 11:51:58;;;;;;;5.07;2.40;;;;;;;;;;5036280;28;20033;-46
2022/05/11 11:54:42;;;;;;;3.50;2.10;;;;;;;;;;5055357;28;20029;-46
2022/05/11 11:57:10;;;;;;;3.95;2.30;;;;;;;;;;5054182;28;20033;-46
2022/05/11 11:59:41;;;;;;;3.83;2.17;;;;;;;;;;5054809;28;20120;-46
2022/05/11 12:02:28;;;;;;;5.35;2.47;;;;;;;;;;5055342;28;20025;-46
2022/05/11 12:05:06;;;;;;;3.28;2.28;;;;;;;;;;5055307;28;20037;-46
2022/05/11 12:16:16;;;;;;;5.05;2.20;;;;;;;;;;5054802;28;20132;-45
2022/05/11 12:18:44;;;;;;;5.75;2.22;;;;;;;;;;5054964;28;20037;-45
2022/05/11 12:21:27;;;;;;;5.10;2.60;;;;;;;;;;5054996;28;20496;-45
2022/05/11 12:23:54;;;;;;;3.88;2.40;;;31.30;89.40;;;;;;5054787;28;20033;-45
2022/05/11 12:26:30;;;;;;;5.80;2.78;;;31.50;92.90;;;;;;5053137;28;20393;-46
2022/05/11 12:32:00;;;;;;;5.03;2.17;;;31.20;90.60;;;;;;5054939;28;20043;-46
2022/05/11 12:34:38;;;;;;;4.28;2.25;;;31.30;90.90;;;;;;5053941;28;20485;-46
2022/05/11 12:37:23;;;;;;;4.43;2.13;;;31.10;90.50;;;;;;5054608;28;20041;-45
2022/05/11 12:40:00;;;;;;;3.88;2.60;;;;;;;;;;5054766;28;20036;-45
2022/05/11 12:42:46;;;;;;;6.65;2.90;;;;;;;;;;5054614;28;20028;-46
2022/05/11 12:45:17;;;;;;;3.05;2.60;;;;;;;;;;5054688;28;20029;-45
2022/05/11 12:47:45;;;;;;;3.20;2.50;;;;;;;;;;5054485;28;20468;-46
2022/05/11 12:50:23;;;;;;;4.03;2.40;;;;;;;;;;5054449;28;20029;-46
2022/05/11 12:53:03;;;;;;;5.57;2.58;;;;;;;;;;5052001;28;20128;-46
2022/05/11 12:55:34;;;;;;;5.57;2.72;;;;;;;;;;5052722;28;20047;-46
2022/05/11 12:58:01;;;;;;;5.20;2.80;;;;;;;;;;5053569;28;20075;-46
2022/05/11 13:00:29;;;;;;;5.63;2.50;;;;;;;;;;5053556;28;20047;-45
2022/05/11 13:02:56;;;;;;;5.45;3.33;;;;;;;;;;5034762;28;20503;-47
2022/05/11 13:05:23;;;;;;;4.93;2.75;;;;;;;;;;5052780;28;20060;-48
2022/05/11 13:07:55;;;;;;;7.50;3.00;;;;;;;;;;5055547;28;20029;-47
2022/05/11 13:10:31;;;;;;;3.65;2.78;;;;;;;;;;5053916;28;20040;-48
2022/05/11 13:12:59;;;;;;;5.28;2.50;;;;;;;;;;5051943;28;20048;-48
2022/05/11 13:15:36;;;;;;;5.13;2.83;;;;;;;;;;5049253;28;20064;-48
2022/05/11 13:18:04;;;;;;;2.92;2.47;;;;;;;;;;5042456;28;20049;-48
2022/05/11 13:20:36;;;;;;;5.30;2.60;;;31.80;88.40;;;;;;5058127;28;20039;-48
2022/05/11 13:23:11;;;;;;;6.55;3.08;;;31.90;90.30;;;;;;5071575;28;20044;-48
2022/05/11 13:25:49;;;;;;;8.10;3.28;;;31.80;90.30;;;;;;5071523;28;20060;-48
2022/05/11 13:28:29;;;;;;;8.88;5.50;;;31.60;90.80;;;;;;5054850;28;20119;-48
2022/05/11 13:30:58;;;;;;;4.20;2.83;;;31.80;90.00;;;;;;5071585;28;20044;-48
2022/05/11 13:33:33;;;;;;;4.43;2.35;;;31.70;88.20;;;;;;5055075;28;20040;-48
2022/05/11 13:36:12;;;;;;;3.28;2.20;;;31.90;90.10;;;;;;5071447;28;20457;-48
2022/05/11 13:38:48;;;;;;;4.35;2.38;;;31.40;85.80;;;;;;5054509;28;20394;-48
2022/05/11 13:41:18;;;;;;;4.40;2.58;;;31.30;85.60;;;;;;5071620;28;20480;-48
2022/05/11 13:43:47;;;;;;;7.57;2.83;;;31.50;88.30;;;;;;5072236;28;20043;-49
2022/05/11 13:48:11;;;;;;;6.07;2.58;;;31.30;89.20;;;;;;5072809;28;20028;-49
2022/05/11 13:49:29;;;;;;;3.40;2.08;;;31.40;85.90;;;;;;5085237;28;20036;-49
2022/05/11 13:51:55;;;;;;;3.55;2.30;;;31.40;87.00;;;;;;5075302;28;20471;-49
2022/05/11 13:54:36;;;;;;;4.15;2.72;;;31.60;86.20;;;;;;5053104;28;20039;-49
2022/05/11 13:57:08;;;;;;;3.95;2.17;;;31.40;87.50;;;;;;5043449;28;20063;-49
2022/05/11 13:59:45;;;;;;;8.18;2.80;;;31.50;88.60;;;;;;5053073;28;20107;-48